Latest Weather Observations for King Island Airport

IDT60801

Issued at 4:31 am EDT Thursday 2 March 2017 (issued every 30 minutes, with the page automatically refreshed every 10 minutes)

About weather observations | Map of weather stations | Latest weather observations for TAS | Other Formats
Station Details ID: 098017 Name: KING ISLAND AIRPORT Lat: -39.88 Lon: 143.88 Height: 37.0 m
Data from the previous 72 hours. | See also: Recent months at King Island Airport
Date/Time
EDT
Temp
°C
App
Temp
°C
Dew
Point
°C
Rel
Hum
%
Delta-T
°C
Wind Press
QNH
hPa
Press
MSL
hPa
Rain since
9am
mm
Dir  Spd
km/h
Gust
km/h
Spd
kts
Gust
kts
02/04:30am 15.9 13.7 15.9 100 0.0 E 22 30 12 16 1018.4 1018.3 0.0
02/04:00am 16.1 13.2 16.1 100 0.0 ENE 26 33 14 18 1018.7 1018.6 0.0
02/03:30am 16.6 15.0 16.6 100 0.0 E 20 28 11 15 1018.9 1018.8 0.0
02/03:00am 16.7 15.2 16.7 100 0.0 ENE 20 32 11 17 1019.2 1019.1 0.0
02/02:30am 16.6 14.7 16.6 100 0.0 ENE 22 30 12 16 1019.4 1019.3 0.0
02/02:00am 16.6 15.2 16.6 100 0.0 ENE 19 26 10 14 1019.6 1019.5 0.0
02/01:30am 16.8 15.3 16.8 100 0.0 ENE 20 30 11 16 1019.9 1019.8 0.0
02/01:00am 16.9 16.4 16.9 100 0.0 ENE 15 20 8 11 1020.2 1020.1 0.0
02/12:30am 16.8 16.6 16.8 100 0.0 E 13 15 7 8 1020.4 1020.3 0.0
02/12:00am 16.7 15.7 16.7 100 0.0 ENE 17 24 9 13 1020.4 1020.3 0.0
 
Date/Time
EDT
Temp
°C
App
Temp
°C
Dew
Point
°C
Rel
Hum
%
Delta-T
°C
Wind Press
QNH
hPa
Press
MSL
hPa
Rain since
9am
mm
Dir  Spd
km/h
Gust
km/h
Spd
kts
Gust
kts
01/11:30pm 16.4 15.7 16.4 100 0.0 E 15 22 8 12 1020.3 1020.2 0.0
01/11:00pm 16.3 14.8 16.3 100 0.0 E 19 26 10 14 1020.4 1020.3 0.0
01/10:30pm 16.2 14.7 16.2 100 0.0 E 19 24 10 13 1020.5 1020.4 0.0
01/10:00pm 16.2 15.0 16.2 100 0.0 E 17 24 9 13 1020.6 1020.5 0.0
01/09:30pm 16.3 14.8 16.3 100 0.0 E 19 24 10 13 1020.6 1020.5 0.0
01/09:00pm 16.8 16.6 16.8 100 0.0 E 13 19 7 10 1020.6 1020.5 0.0
01/08:36pm 17.0 16.4 16.7 98 0.2 ESE 15 19 8 10 1020.5 1020.4 0.0
01/08:30pm 17.2 17.0 16.7 97 0.3 ESE 13 19 7 10 1020.5 1020.4 0.0
01/08:29pm 17.2 17.0 16.7 97 0.3 ESE 13 19 7 10 1020.5 1020.4 0.0
01/08:00pm 18.2 17.2 16.7 91 0.9 E 17 20 9 11 1020.1 1020.0 0.0
01/07:30pm 20.4 19.6 17.0 81 2.1 E 17 20 9 11 1019.9 1019.8 0.0
01/07:00pm 21.5 20.2 16.9 75 2.8 ENE 19 22 10 12 1019.8 1019.7 0.0
01/06:30pm 22.4 21.2 17.1 72 3.3 E 19 24 10 13 1019.8 1019.7 0.0
01/06:00pm 22.6 21.2 16.6 69 3.7 E 19 26 10 14 1019.8 1019.7 0.0
01/05:30pm 22.6 20.4 16.9 70 3.5 E 24 32 13 17 1019.9 1019.8 0.0
01/05:00pm 23.2 21.1 17.2 69 3.7 E 24 30 13 16 1020.1 1020.0 0.0
01/04:30pm 22.7 20.4 16.7 69 3.7 E 24 30 13 16 1020.2 1020.1 0.0
01/04:00pm 23.5 21.5 17.3 68 3.8 ENE 24 30 13 16 1020.6 1020.5 0.0
01/03:30pm 24.5 22.4 17.2 63 4.5 E 24 30 13 16 1020.7 1020.6 0.0
01/03:00pm 23.8 21.8 17.5 68 3.9 E 24 30 13 16 1021.0 1020.9 0.0
01/02:30pm 22.9 19.9 16.7 68 3.8 ESE 28 35 15 19 1021.2 1021.1 0.0
01/02:00pm 23.1 20.5 16.9 68 3.8 ENE 26 32 14 17 1021.3 1021.2 0.0
01/01:30pm 22.9 20.0 17.1 70 3.6 E 28 35 15 19 1021.2 1021.1 0.0
01/01:00pm 23.0 19.7 17.0 69 3.7 E 30 37 16 20 1021.5 1021.4 0.0
01/12:30pm 22.7 19.4 16.9 70 3.6 E 30 37 16 20 1021.6 1021.5 0.0
01/12:00pm 22.4 19.4 16.9 71 3.4 E 28 33 15 18 1021.7 1021.6 0.0
01/11:30am 21.8 18.9 17.0 74 2.9 E 28 35 15 19 1021.8 1021.7 0.0
01/11:00am 21.2 18.7 17.2 78 2.4 E 26 32 14 17 1021.6 1021.5 0.0
01/10:30am 19.8 17.4 16.4 81 2.0 ENE 24 32 13 17 1021.7 1021.6 0.0
01/10:12am 19.1 16.1 16.7 86 1.4 E 28 33 15 18 1021.7 1021.6 0.0
01/10:00am 18.2 15.3 16.2 88 1.2 E 26 33 14 18 1021.9 1021.8 0.0
01/09:30am 16.9 14.5 16.3 96 0.4 E 24 32 13 17 1021.7 1021.6 0.0
01/09:00am 16.6 14.3 16.6 100 0.0 ENE 24 30 13 16 1021.8 1021.7 0.2
01/08:30am 15.7 13.0 15.7 100 0.0 E 24 33 13 18 1021.8 1021.7 0.2
01/08:00am 15.4 12.6 15.4 100 0.0 E 24 30 13 16 1021.7 1021.6 0.2
01/07:58am 15.4 13.0 15.4 100 0.0 E 22 30 12 16 1021.7 1021.6 0.2
01/07:30am 15.1 11.8 15.1 100 0.0 E 26 37 14 20 1021.5 1021.4 0.2
01/07:00am 15.2 13.1 15.2 100 0.0 E 20 26 11 14 1021.1 1021.0 0.2
01/06:30am 15.1 12.6 15.1 100 0.0 E 22 30 12 16 1020.8 1020.7 0.2
01/06:00am 15.2 12.7 15.2 100 0.0 E 22 28 12 15 1020.7 1020.6 0.2
01/05:30am 15.2 13.1 15.2 100 0.0 E 20 28 11 15 1020.7 1020.6 0.2
01/05:00am 15.3 13.2 15.3 100 0.0 E 20 26 11 14 1020.7 1020.6 0.2
01/04:30am 15.3 13.8 15.3 100 0.0 E 17 24 9 13 1020.7 1020.6 0.0
01/04:00am 15.2 13.7 15.2 100 0.0 E 17 24 9 13 1020.6 1020.5 0.0
01/03:30am 15.2 14.1 15.2 100 0.0 ENE 15 19 8 10 1020.6 1020.5 0.0
01/03:00am 15.2 14.1 15.2 100 0.0 ENE 15 19 8 10 1020.6 1020.5 0.0
01/02:30am 15.2 13.3 15.2 100 0.0 E 19 26 10 14 1020.8 1020.7 0.0
01/02:00am 15.4 13.4 15.4 100 0.0 E 20 26 11 14 1020.9 1020.8 0.0
01/01:30am 15.4 13.4 15.4 100 0.0 E 20 26 11 14 1021.1 1021.0 0.0
01/01:00am 15.4 13.9 15.4 100 0.0 E 17 19 9 10 1021.1 1021.0 0.0
01/12:30am 15.3 14.2 15.3 100 0.0 E 15 20 8 11 1021.2 1021.1 0.0
01/12:00am 15.4 13.6 15.4 100 0.0 E 19 24 10 13 1021.3 1021.2 0.0
 
Date/Time
EDT
Temp
°C
App
Temp
°C
Dew
Point
°C
Rel
Hum
%
Delta-T
°C
Wind Press
QNH
hPa
Press
MSL
hPa
Rain since
9am
mm
Dir  Spd
km/h
Gust
km/h
Spd
kts
Gust
kts
28/11:30pm 15.5 13.5 15.5 100 0.0 E 20 30 11 16 1021.5 1021.4 0.0
28/11:00pm 15.6 13.6 15.6 100 0.0 E 20 28 11 15 1021.6 1021.5 0.0
28/10:30pm 15.9 14.1 15.9 100 0.0 E 20 26 11 14 1021.9 1021.8 0.0
28/10:00pm 16.2 14.5 16.2 100 0.0 E 20 26 11 14 1021.9 1021.8 0.0
28/09:30pm 16.4 14.8 16.4 100 0.0 E 20 26 11 14 1021.8 1021.7 0.0
28/09:08pm 16.2 14.6 16.0 99 0.1 E 19 24 10 13 1021.7 1021.6 0.0
28/09:00pm 16.4 14.8 16.1 98 0.2 E 19 24 10 13 1021.6 1021.5 0.0
28/08:30pm 16.7 15.0 16.2 97 0.3 E 20 26 11 14 1021.4 1021.3 0.0
28/08:22pm 16.8 15.1 16.3 97 0.3 E 20 24 11 13 1021.4 1021.3 0.0
28/08:00pm 17.3 15.8 16.3 94 0.6 E 19 24 10 13 1021.2 1021.1 0.0
28/07:30pm 18.7 16.8 16.7 88 1.2 E 22 28 12 15 1021.0 1020.9 0.0
28/07:00pm 20.0 18.4 16.6 81 2.0 E 20 28 11 15 1020.9 1020.8 0.0
28/06:30pm 20.9 18.6 16.7 77 2.6 E 24 30 13 16 1020.8 1020.7 0.0
28/06:00pm 21.7 19.1 16.9 74 2.9 E 26 30 14 16 1020.7 1020.6 0.0
28/05:30pm 22.2 19.6 16.9 72 3.2 E 26 32 14 17 1020.9 1020.8 0.0
28/05:00pm 22.4 19.9 17.1 72 3.3 E 26 33 14 18 1020.8 1020.7 0.0
28/04:30pm 22.5 19.7 17.2 72 3.3 E 28 33 15 18 1021.0 1020.9 0.0
28/04:00pm 23.5 20.9 17.7 70 3.6 E 28 33 15 18 1021.2 1021.1 0.0
28/03:30pm 23.5 19.9 17.3 68 3.8 E 32 37 17 20 1021.3 1021.2 0.0
28/03:00pm 24.0 20.9 17.5 67 4.0 ENE 30 35 16 19 1021.4 1021.3 0.0
28/02:30pm 24.2 21.6 17.7 67 4.1 E 28 37 15 20 1021.6 1021.5 0.0
28/02:00pm 24.5 21.8 17.5 65 4.4 E 28 33 15 18 1021.7 1021.6 0.0
28/01:30pm 23.6 20.3 16.9 66 4.1 ENE 30 37 16 20 1021.9 1021.8 0.0
28/01:00pm 23.3 20.0 17.1 68 3.8 ENE 30 39 16 21 1021.9 1021.8 0.0
28/12:30pm 23.7 20.4 17.0 66 4.1 ENE 30 37 16 20 1022.0 1021.9 0.0
28/12:00pm 23.3 19.9 16.8 67 4.0 E 30 37 16 20 1022.3 1022.2 0.0
28/11:30am 22.6 19.0 17.1 71 3.4 E 32 39 17 21 1022.3 1022.2 0.0
28/11:00am 21.5 17.6 16.5 73 3.0 ENE 32 39 17 21 1022.4 1022.3 0.0
28/10:30am 21.3 18.4 17.1 77 2.6 E 28 39 15 21 1022.1 1022.0 0.0
28/10:01am 20.3 16.6 16.9 81 2.1 E 32 39 17 21 1022.1 1022.0 0.0
28/10:00am 20.1 16.4 16.9 82 1.9 ENE 32 39 17 21 1022.2 1022.1 0.0
28/09:30am 19.1 15.4 16.9 87 1.3 ENE 32 41 17 22 1022.2 1022.1 0.0
28/09:00am 18.1 14.4 17.0 93 0.7 E 32 41 17 22 1022.1 1022.0 0.0
28/08:30am 17.6 14.3 17.0 96 0.4 ENE 30 39 16 21 1022.0 1021.9 0.0
28/08:00am 17.0 14.3 16.7 98 0.2 E 26 33 14 18 1021.9 1021.8 0.0
28/07:30am 16.9 13.9 16.7 99 0.1 E 28 35 15 19 1021.7 1021.6 0.0
28/07:00am 16.6 12.1 16.4 99 0.1 E 35 44 19 24 1021.4 1021.3 0.0
28/06:30am 16.6 13.4 16.4 99 0.1 E 28 37 15 20 1021.3 1021.2 0.0
28/06:08am 16.6 13.4 16.4 99 0.1 E 28 35 15 19 1021.2 1021.1 0.0
28/06:00am 16.7 13.6 16.5 99 0.1 E 28 39 15 21 1021.2 1021.1 0.0
28/05:53am 16.6 13.8 16.4 99 0.1 E 26 39 14 21 1021.3 1021.2 0.0
28/05:51am 16.7 14.3 16.5 99 0.1 E 24 35 13 19 1021.3 1021.2 0.0
28/05:36am 16.7 14.0 16.5 99 0.1 E 26 33 14 18 1021.2 1021.1 0.0
28/05:30am 16.7 14.3 16.5 99 0.1 E 24 32 13 17 1021.2 1021.1 0.0
28/05:00am 16.9 14.6 16.6 98 0.2 E 24 32 13 17 1021.2 1021.1 0.0
28/04:30am 17.0 14.0 16.7 98 0.2 E 28 37 15 20 1021.3 1021.2 0.0
28/04:00am 17.1 14.1 16.8 98 0.2 E 28 37 15 20 1021.4 1021.3 0.0
28/03:30am 17.1 14.1 16.8 98 0.2 E 28 35 15 19 1021.6 1021.5 0.0
28/03:00am 17.0 14.0 16.8 99 0.1 E 28 35 15 19 1021.7 1021.6 0.0
28/02:30am 16.9 13.4 16.6 98 0.2 E 30 37 16 20 1021.7 1021.6 0.0
28/02:00am 16.8 13.7 16.5 98 0.2 E 28 33 15 18 1022.0 1021.9 0.0
28/01:30am 16.9 13.8 16.6 98 0.2 E 28 33 15 18 1022.1 1022.0 0.0
28/01:18am 16.8 13.6 16.3 97 0.3 E 28 35 15 19 1022.1 1022.0 0.0
28/01:00am 16.9 13.7 16.4 97 0.3 E 28 35 15 19 1022.1 1022.0 0.0
28/12:30am 16.8 14.0 16.3 97 0.3 E 26 32 14 17 1022.0 1021.9 0.0
28/12:19am 16.9 13.7 16.4 97 0.3 E 28 35 15 19 1022.0 1021.9 0.0
28/12:00am 16.9 14.1 16.4 97 0.3 E 26 33 14 18 1022.1 1022.0 0.0
 
Date/Time
EDT
Temp
°C
App
Temp
°C
Dew
Point
°C
Rel
Hum
%
Delta-T
°C
Wind Press
QNH
hPa
Press
MSL
hPa
Rain since
9am
mm
Dir  Spd
km/h
Gust
km/h
Spd
kts
Gust
kts
27/11:30pm 16.9 13.7 16.3 96 0.4 E 28 35 15 19 1022.2 1022.1 0.0
27/11:19pm 16.9 13.7 16.3 96 0.4 E 28 33 15 18 1022.2 1022.1 0.0
27/11:00pm 16.9 13.7 16.3 96 0.4 E 28 35 15 19 1022.2 1022.1 0.0
27/10:30pm 16.9 13.6 16.1 95 0.5 E 28 35 15 19 1022.2 1022.1 0.0
27/10:00pm 17.0 14.1 16.2 95 0.5 E 26 33 14 18 1022.3 1022.2 0.0
27/09:30pm 17.0 13.8 16.2 95 0.5 E 28 35 15 19 1022.1 1022.0 0.0
27/09:00pm 17.2 14.3 16.2 94 0.6 E 26 32 14 17 1022.1 1022.0 0.0
27/08:30pm 17.3 14.4 16.2 93 0.7 E 26 33 14 18 1022.1 1022.0 0.0
27/08:00pm 17.8 14.6 16.3 91 0.9 E 28 33 15 18 1022.0 1021.9 0.0
27/07:30pm 18.8 15.2 16.2 85 1.6 E 30 37 16 20 1021.8 1021.7 0.0
27/07:00pm 19.7 15.6 16.0 79 2.2 E 32 39 17 21 1021.6 1021.5 0.0
27/06:30pm 21.1 17.7 15.9 72 3.1 E 28 39 15 21 1021.6 1021.5 0.0
27/06:00pm 21.1 16.6 15.0 68 3.6 E 32 39 17 21 1021.6 1021.5 0.0
27/05:30pm 21.3 16.8 15.4 69 3.5 E 33 43 18 23 1021.6 1021.5 0.0
27/05:00pm 21.7 17.4 15.5 68 3.7 E 32 41 17 22 1021.7 1021.6 0.0
27/04:30pm 22.7 18.5 16.3 67 3.9 E 33 41 18 22 1021.8 1021.7 0.0
27/04:00pm 22.0 18.0 16.1 69 3.6 E 32 39 17 21 1021.9 1021.8 0.0
27/03:30pm 22.3 18.2 15.9 67 3.9 ENE 32 39 17 21 1022.0 1021.9 0.0
27/03:00pm 22.9 18.7 15.7 64 4.3 ENE 32 41 17 22 1022.2 1022.1 0.0
27/02:30pm 22.1 18.0 15.9 68 3.7 E 32 44 17 24 1022.5 1022.4 0.0
27/02:00pm 22.3 18.3 16.1 68 3.7 E 32 39 17 21 1022.7 1022.6 0.0
27/01:30pm 22.1 18.0 16.4 70 3.5 E 33 41 18 22 1022.8 1022.7 0.0
27/01:00pm 22.1 17.6 16.4 70 3.4 E 35 46 19 25 1022.8 1022.7 0.0
27/12:30pm 21.1 16.1 16.1 73 3.0 E 37 52 20 28 1023.0 1022.9 0.0
27/12:29pm 20.8 15.8 16.0 74 2.9 E 37 52 20 28 1023.1 1023.0 0.0
27/12:06pm 21.1 16.5 16.1 73 3.0 E 35 48 19 26 1023.2 1023.1 0.0
27/12:00pm 21.2 16.2 16.2 73 3.0 E 37 48 20 26 1023.2 1023.1 0.0
27/11:30am 21.4 17.2 16.1 72 3.2 ENE 33 48 18 26 1023.3 1023.2 0.0
27/11:00am 20.0 14.5 15.8 77 2.5 E 39 52 21 28 1023.5 1023.4 0.0
27/10:30am 20.0 15.9 16.4 80 2.2 ENE 33 50 18 27 1023.6 1023.5 0.0
27/10:00am 19.2 15.0 16.1 82 1.8 ENE 33 48 18 26 1023.6 1023.5 0.0
27/09:30am 18.8 14.5 16.0 84 1.7 ENE 33 46 18 25 1023.5 1023.4 0.0
27/09:00am 18.1 14.0 15.9 87 1.3 ENE 32 46 17 25 1023.5 1023.4 0.0
27/08:30am 17.2 13.0 15.7 91 0.9 E 32 43 17 23 1023.2 1023.1 0.0
27/08:04am 16.6 12.3 15.5 93 0.6 E 32 39 17 21 1022.9 1022.8 0.0
27/08:00am 16.5 12.2 15.4 93 0.6 E 32 39 17 21 1022.9 1022.8 0.0
27/07:30am 16.0 11.9 14.9 93 0.6 E 30 35 16 19 1022.7 1022.6 0.0
27/07:00am 15.8 11.9 14.5 92 0.7 E 28 35 15 19 1022.6 1022.5 0.0
27/06:30am 15.7 11.8 14.4 92 0.7 E 28 37 15 20 1022.4 1022.3 0.0
27/06:00am 15.7 11.3 14.2 91 0.8 E 30 35 16 19 1022.2 1022.1 0.0
27/05:30am 15.8 11.8 14.2 90 0.9 E 28 33 15 18 1022.1 1022.0 0.0
27/05:00am 15.7 11.7 14.1 90 0.9 E 28 37 15 20 1022.0 1021.9 0.0

Other Formats:

Comma delimited format used in spreadsheet applications
http://www.bom.gov.au/fwo/IDT60801/IDT60801.94850.axf

JavaScript Object Notation format (JSON) in row-major order
http://www.bom.gov.au/fwo/IDT60801/IDT60801.94850.json